Latest Weather Observations for Sydney Harbour

IDN60901

Issued at 9:51 pm EST Saturday 27 August 2016 (issued every 10 minutes, with the page automatically refreshed every 10 minutes)

About weather observations | Map of Sydney area stations | Latest observations for Sydney area | Other Formats
Station Details ID: 066196 Name: WEDDING CAKE WEST Lat: -33.84 Lon: 151.26 Height: 6.0 m
Data from the previous 72 hours. | See also: Recent months at Sydney Harbour
Date/Time
EST
Temp
°C
App
Temp
°C
Dew
Point
°C
Rel
Hum
%
Delta-T
°C
Wind Press
QNH
hPa
Press
MSL
hPa
Rain since
9am
mm
Dir  Spd
km/h
Gust
km/h
Spd
kts
Gust
kts
27/09:30pm 13.7 - - - - NNW 15 17 8 9 - - -
27/09:00pm 14.3 - - - - N 19 22 10 12 - - -
27/08:30pm 14.4 - - - - NNW 13 17 7 9 - - -
27/08:00pm 14.9 - - - - N 17 22 9 12 - - -
27/07:30pm 15.3 - - - - N 17 22 9 12 - - -
27/07:00pm 16.1 - - - - N 24 30 13 16 - - -
27/06:30pm 16.1 - - - - N 24 30 13 16 - - -
27/06:00pm 16.1 - - - - N 20 24 11 13 - - -
27/05:30pm 16.2 - - - - N 20 24 11 13 - - -
27/05:00pm 16.3 - - - - NNE 24 26 13 14 - - -
27/04:30pm 16.6 - - - - NNE 20 26 11 14 - - -
27/04:00pm 16.7 - - - - ENE 19 22 10 12 - - -
27/03:30pm 16.6 - - - - ENE 17 20 9 11 - - -
27/03:00pm 16.5 - - - - ENE 15 19 8 10 - - -
27/02:30pm 16.1 - - - - ENE 17 20 9 11 - - -
27/02:00pm 16.1 - - - - ENE 19 20 10 11 - - -
27/01:30pm 17.2 - - - - SW 7 9 4 5 - - -
27/01:00pm 15.9 - - - - SW 7 9 4 5 - - -
27/12:30pm 15.6 - - - - SW 11 13 6 7 - - -
27/12:00pm 15.0 - - - - SW 15 17 8 9 - - -
27/11:30am 14.5 - - - - WSW 15 19 8 10 - - -
27/11:00am 13.9 - - - - WSW 20 26 11 14 - - -
27/10:30am 13.3 - - - - W 20 28 11 15 - - -
27/10:00am 13.0 - - - - W 20 28 11 15 - - -
27/09:30am 11.9 - - - - WSW 26 37 14 20 - - -
27/09:00am 11.1 - - - - WSW 26 33 14 18 - - -
27/08:30am 10.4 - - - - WSW 24 32 13 17 - - -
27/08:00am 9.9 - - - - WSW 26 32 14 17 - - -
27/07:30am 9.7 - - - - WSW 26 32 14 17 - - -
27/07:00am 9.6 - - - - W 32 39 17 21 - - -
27/06:30am 9.4 - - - - W 30 37 16 20 - - -
27/06:00am 9.6 - - - - WSW 28 37 15 20 - - -
27/05:30am 9.6 - - - - W 28 35 15 19 - - -
27/05:00am 10.0 - - - - W 30 35 16 19 - - -
27/04:30am 10.3 - - - - WSW 28 35 15 19 - - -
27/04:00am 10.5 - - - - WSW 28 33 15 18 - - -
27/03:30am 10.8 - - - - W 30 39 16 21 - - -
27/03:00am 11.2 - - - - W 26 33 14 18 - - -
27/02:30am 11.5 - - - - WSW 20 24 11 13 - - -
27/02:00am 11.9 - - - - W 19 22 10 12 - - -
27/01:30am 12.2 - - - - WSW 9 11 5 6 - - -
27/01:00am 12.3 - - - - WSW 15 20 8 11 - - -
27/12:30am 12.1 - - - - WSW 13 15 7 8 - - -
27/12:00am 12.1 - - - - WSW 9 15 5 8 - - -
 
Date/Time
EST
Temp
°C
App
Temp
°C
Dew
Point
°C
Rel
Hum
%
Delta-T
°C
Wind Press
QNH
hPa
Press
MSL
hPa
Rain since
9am
mm
Dir  Spd
km/h
Gust
km/h
Spd
kts
Gust
kts
26/11:30pm 11.7 - - - - W 13 17 7 9 - - -
26/11:00pm 12.1 - - - - W 13 15 7 8 - - -
26/10:30pm 12.5 - - - - WSW 2 9 1 5 - - -
26/10:00pm 12.3 - - - - WSW 9 15 5 8 - - -
26/09:30pm 12.3 - - - - SSE 26 33 14 18 - - -
26/09:00pm 12.9 - - - - S 17 22 9 12 - - -
26/08:30pm 13.2 - - - - S 22 28 12 15 - - -
26/08:00pm 12.9 - - - - S 30 37 16 20 - - -
26/07:30pm 12.6 - - - - S 32 52 17 28 - - -
26/07:27pm 13.8 - - - - SSW 24 52 13 28 - - -
26/07:00pm 14.3 - - - - SSW 30 35 16 19 - - -
26/06:30pm 14.3 - - - - S 30 37 16 20 - - -
26/06:00pm 14.6 - - - - S 32 41 17 22 - - -
26/05:30pm 14.7 - - - - SSW 32 39 17 21 - - -
26/05:00pm 14.8 - - - - SSW 33 41 18 22 - - -
26/04:30pm 14.1 - - - - SSE 24 35 13 19 - - -
26/04:00pm 14.9 - - - - S 30 39 16 21 - - -
26/03:30pm 14.6 - - - - SSW 32 39 17 21 - - -
26/03:00pm 14.6 - - - - SSW 33 43 18 23 - - -
26/02:30pm 14.5 - - - - SSW 33 43 18 23 - - -
26/02:00pm 14.6 - - - - SSW 26 35 14 19 - - -
26/01:30pm 14.6 - - - - SSW 33 41 18 22 - - -
26/01:00pm 14.2 - - - - SSW 32 43 17 23 - - -
26/12:30pm 14.1 - - - - SSW 32 39 17 21 - - -
26/12:00pm 13.7 - - - - SSW 32 43 17 23 - - -
26/11:30am 13.4 - - - - SW 28 33 15 18 - - -
26/11:00am 12.9 - - - - SW 32 43 17 23 - - -
26/10:30am 12.5 - - - - SW 32 39 17 21 - - -
26/10:00am 11.8 - - - - W 22 35 12 19 - - -
26/09:30am 10.7 - - - - W 24 32 13 17 - - -
26/09:00am 10.3 - - - - W 24 28 13 15 - - -
26/08:30am 9.9 - - - - W 22 32 12 17 - - -
26/08:00am 9.5 - - - - WSW 24 32 13 17 - - -
26/07:30am 9.2 - - - - WSW 32 43 17 23 - - -
26/07:00am 8.9 - - - - WSW 28 37 15 20 - - -
26/06:30am 8.8 - - - - WSW 26 35 14 19 - - -
26/06:00am 9.1 - - - - WSW 28 37 15 20 - - -
26/05:30am 9.3 - - - - W 28 35 15 19 - - -
26/05:00am 9.3 - - - - W 24 32 13 17 - - -
26/04:30am 9.9 - - - - WSW 26 35 14 19 - - -
26/04:00am 9.5 - - - - W 24 35 13 19 - - -
26/03:30am 9.4 - - - - W 24 35 13 19 - - -
26/03:00am 10.7 - - - - WSW 26 33 14 18 - - -
26/02:30am 10.5 - - - - SW 30 39 16 21 - - -
26/02:00am 10.8 - - - - SW 32 41 17 22 - - -
26/01:30am 11.1 - - - - WSW 32 41 17 22 - - -
26/01:00am 11.2 - - - - WSW 33 43 18 23 - - -
26/12:30am 11.2 - - - - SW 33 43 18 23 - - -
26/12:00am 11.5 - - - - SW 26 32 14 17 - - -
 
Date/Time
EST
Temp
°C
App
Temp
°C
Dew
Point
°C
Rel
Hum
%
Delta-T
°C
Wind Press
QNH
hPa
Press
MSL
hPa
Rain since
9am
mm
Dir  Spd
km/h
Gust
km/h
Spd
kts
Gust
kts
25/11:30pm 11.9 - - - - WSW 26 41 14 22 - - -
25/11:00pm 12.0 - - - - WSW 30 44 16 24 - - -
25/10:30pm 12.4 - - - - W 26 33 14 18 - - -
25/10:00pm 12.5 - - - - W 28 35 15 19 - - -
25/09:30pm 13.2 - - - - WSW 22 28 12 15 - - -
25/09:00pm 13.7 - - - - W 22 30 12 16 - - -
25/08:30pm 13.6 - - - - NW 20 26 11 14 - - -
25/08:00pm 14.2 - - - - SW 7 11 4 6 - - -
25/07:30pm 14.0 - - - - SW 7 9 4 5 - - -
25/07:00pm 14.2 - - - - SW 7 9 4 5 - - -
25/06:30pm 14.8 - - - - SW 7 11 4 6 - - -
25/06:00pm 14.9 - - - - SW 13 17 7 9 - - -
25/05:30pm 14.8 - - - - SSW 11 13 6 7 - - -
25/05:00pm 14.7 - - - - SSE 6 9 3 5 - - -
25/04:30pm 14.8 - - - - S 15 20 8 11 - - -
25/04:00pm 15.0 - - - - SSE 19 26 10 14 - - -
25/03:30pm 15.7 - - - - SSE 20 26 11 14 - - -
25/03:00pm 15.5 - - - - SSE 20 28 11 15 - - -
25/02:30pm 15.0 - - - - S 20 26 11 14 - - -
25/02:00pm 14.8 - - - - S 20 26 11 14 - - -
25/01:30pm 15.0 - - - - SSW 24 35 13 19 - - -
25/01:00pm 14.9 - - - - SW 28 37 15 20 - - -
25/12:30pm 14.5 - - - - SW 28 35 15 19 - - -
25/12:00pm 14.2 - - - - WSW 32 41 17 22 - - -
25/11:30am 14.0 - - - - SW 43 54 23 29 - - -
25/11:18am 14.1 - - - - WSW 30 50 16 27 - - -
25/11:00am 13.8 - - - - WSW 32 43 17 23 - - -
25/10:30am 12.6 - - - - WSW 30 39 16 21 - - -
25/10:00am 12.1 - - - - WSW 32 41 17 22 - - -
25/09:30am 11.8 - - - - WSW 32 41 17 22 - - -
25/09:00am 11.8 - - - - WSW 33 43 18 23 - - -
25/08:30am 11.0 - - - - WSW 32 52 17 28 - - -
25/08:23am 10.8 - - - - WSW 33 52 18 28 - - -
25/08:00am 10.4 - - - - W 30 41 16 22 - - -
25/07:30am 10.0 - - - - W 30 39 16 21 - - -
25/07:00am 10.1 - - - - W 28 37 15 20 - - -
25/06:30am 10.2 - - - - W 30 43 16 23 - - -
25/06:00am 10.4 - - - - W 28 39 15 21 - - -
25/05:30am 10.1 - - - - WSW 28 41 15 22 - - -
25/05:00am 10.2 - - - - W 28 37 15 20 - - -
25/04:30am 10.2 - - - - WSW 28 35 15 19 - - -
25/04:00am 10.4 - - - - WSW 28 43 15 23 - - -
25/03:30am 10.2 - - - - WSW 26 35 14 19 - - -
25/03:00am 10.3 - - - - WSW 30 43 16 23 - - -
25/02:30am 10.1 - - - - W 32 41 17 22 - - -
25/02:00am 10.2 - - - - W 26 32 14 17 - - -
25/01:30am 9.9 - - - - W 28 33 15 18 - - -
25/01:00am 11.1 - - - - WSW 33 46 18 25 - - -
25/12:30am 11.1 - - - - SW 35 44 19 24 - - -
25/12:00am 10.8 - - - - SW 35 43 19 23 - - -
 
Date/Time
EST
Temp
°C
App
Temp
°C
Dew
Point
°C
Rel
Hum
%
Delta-T
°C
Wind Press
QNH
hPa
Press
MSL
hPa
Rain since
9am
mm
Dir  Spd
km/h
Gust
km/h
Spd
kts
Gust
kts
24/11:30pm 10.3 - - - - WSW 28 37 15 20 - - -
24/11:00pm 9.8 - - - - WSW 32 43 17 23 - - -
24/10:30pm 11.3 - - - - WSW 26 35 14 19 - - -
24/10:00pm 12.6 - - - - SW 30 37 16 20 - - -

Latest Capital City Observations: Canberra | Sydney | Melbourne | Brisbane | Adelaide | Perth | Hobart | Darwin

Other Formats:

Comma delimited format used in spreadsheet applications
http://www.bom.gov.au/fwo/IDN60901/IDN60901.95766.axf

JavaScript Object Notation format (JSON) in row-major order
http://www.bom.gov.au/fwo/IDN60901/IDN60901.95766.json